sensor_id;sensor_type;location;lat;lon;timestamp;temperature;humidity
58339;DHT22;68636;52.704;6.536;2023-05-07T00:01:43;14.30;99.90
58339;DHT22;68636;52.704;6.536;2023-05-07T00:04:08;14.20;99.90
58339;DHT22;68636;52.704;6.536;2023-05-07T00:06:34;14.10;99.90
58339;DHT22;68636;52.704;6.536;2023-05-07T00:09:00;14.20;99.90
58339;DHT22;68636;52.704;6.536;2023-05-07T00:11:27;14.30;99.90
58339;DHT22;68636;52.704;6.536;2023-05-07T00:13:53;14.20;99.90
58339;DHT22;68636;52.704;6.536;2023-05-07T00:16:19;14.10;99.90
58339;DHT22;68636;52.704;6.536;2023-05-07T00:18:45;14.20;99.90
58339;DHT22;68636;52.704;6.536;2023-05-07T00:21:11;14.10;99.90
58339;DHT22;68636;52.704;6.536;2023-05-07T00:23:37;14.10;99.90
58339;DHT22;68636;52.704;6.536;2023-05-07T00:26:03;14.20;99.90
58339;DHT22;68636;52.704;6.536;2023-05-07T00:28:29;14.10;99.90
58339;DHT22;68636;52.704;6.536;2023-05-07T00:30:55;14.10;99.90
58339;DHT22;68636;52.704;6.536;2023-05-07T00:33:21;14.20;99.90
58339;DHT22;68636;52.704;6.536;2023-05-07T00:35:47;14.20;99.90
58339;DHT22;68636;52.704;6.536;2023-05-07T00:38:13;14.10;99.90
58339;DHT22;68636;52.704;6.536;2023-05-07T00:40:39;14.10;99.90
58339;DHT22;68636;52.704;6.536;2023-05-07T00:43:05;14.10;99.90
58339;DHT22;68636;52.704;6.536;2023-05-07T00:45:31;14.10;99.90
58339;DHT22;68636;52.704;6.536;2023-05-07T00:48:01;14.10;99.90
58339;DHT22;68636;52.704;6.536;2023-05-07T00:50:28;14.00;99.90
58339;DHT22;68636;52.704;6.536;2023-05-07T00:52:54;14.00;99.90
58339;DHT22;68636;52.704;6.536;2023-05-07T00:55:21;14.00;99.90
58339;DHT22;68636;52.704;6.536;2023-05-07T00:57:47;14.00;99.90
58339;DHT22;68636;52.704;6.536;2023-05-07T01:00:14;14.00;99.90
58339;DHT22;68636;52.704;6.536;2023-05-07T01:02:40;14.00;99.90
58339;DHT22;68636;52.704;6.536;2023-05-07T01:05:08;13.90;99.90
58339;DHT22;68636;52.704;6.536;2023-05-07T01:07:34;14.00;99.90
58339;DHT22;68636;52.704;6.536;2023-05-07T01:10:01;13.90;99.90
58339;DHT22;68636;52.704;6.536;2023-05-07T01:12:28;13.80;99.90
58339;DHT22;68636;52.704;6.536;2023-05-07T01:14:55;13.80;99.90
58339;DHT22;68636;52.704;6.536;2023-05-07T01:17:21;13.80;99.90
58339;DHT22;68636;52.704;6.536;2023-05-07T01:19:46;13.80;99.90
58339;DHT22;68636;52.704;6.536;2023-05-07T01:22:15;13.70;99.90
58339;DHT22;68636;52.704;6.536;2023-05-07T01:24:42;13.80;99.90
58339;DHT22;68636;52.704;6.536;2023-05-07T01:27:08;13.80;99.90
58339;DHT22;68636;52.704;6.536;2023-05-07T01:29:34;13.60;99.90
58339;DHT22;68636;52.704;6.536;2023-05-07T01:32:01;13.60;99.90
58339;DHT22;68636;52.704;6.536;2023-05-07T01:34:30;13.70;99.90
58339;DHT22;68636;52.704;6.536;2023-05-07T01:36:56;13.50;99.90
58339;DHT22;68636;52.704;6.536;2023-05-07T01:39:25;13.60;99.90
58339;DHT22;68636;52.704;6.536;2023-05-07T01:41:54;13.60;99.90
58339;DHT22;68636;52.704;6.536;2023-05-07T01:44:21;13.60;99.90
58339;DHT22;68636;52.704;6.536;2023-05-07T01:46:47;13.50;99.90
58339;DHT22;68636;52.704;6.536;2023-05-07T01:49:14;13.50;99.90
58339;DHT22;68636;52.704;6.536;2023-05-07T01:51:40;13.40;99.90
58339;DHT22;68636;52.704;6.536;2023-05-07T01:54:06;13.40;99.90
58339;DHT22;68636;52.704;6.536;2023-05-07T01:56:32;13.40;99.90
58339;DHT22;68636;52.704;6.536;2023-05-07T01:58:57;13.30;99.90
58339;DHT22;68636;52.704;6.536;2023-05-07T02:01:23;13.20;99.90
58339;DHT22;68636;52.704;6.536;2023-05-07T02:03:49;13.20;99.90
58339;DHT22;68636;52.704;6.536;2023-05-07T02:06:15;13.20;99.90
58339;DHT22;68636;52.704;6.536;2023-05-07T02:08:40;13.10;99.90
58339;DHT22;68636;52.704;6.536;2023-05-07T02:11:06;13.00;99.90
58339;DHT22;68636;52.704;6.536;2023-05-07T02:13:33;13.00;99.90
58339;DHT22;68636;52.704;6.536;2023-05-07T02:16:00;13.00;99.90
58339;DHT22;68636;52.704;6.536;2023-05-07T02:18:25;12.80;99.90
58339;DHT22;68636;52.704;6.536;2023-05-07T02:20:51;12.90;99.90
58339;DHT22;68636;52.704;6.536;2023-05-07T02:23:17;12.80;99.90
58339;DHT22;68636;52.704;6.536;2023-05-07T02:25:42;12.80;99.90
58339;DHT22;68636;52.704;6.536;2023-05-07T02:28:08;12.70;99.90
58339;DHT22;68636;52.704;6.536;2023-05-07T02:30:34;12.70;99.90
58339;DHT22;68636;52.704;6.536;2023-05-07T02:32:59;12.60;99.90
58339;DHT22;68636;52.704;6.536;2023-05-07T02:35:25;12.70;99.90
58339;DHT22;68636;52.704;6.536;2023-05-07T02:37:51;12.60;99.90
58339;DHT22;68636;52.704;6.536;2023-05-07T02:40:17;12.60;99.90
58339;DHT22;68636;52.704;6.536;2023-05-07T02:42:43;12.50;99.90
58339;DHT22;68636;52.704;6.536;2023-05-07T02:45:09;12.50;99.90
58339;DHT22;68636;52.704;6.536;2023-05-07T02:47:35;12.50;99.90
58339;DHT22;68636;52.704;6.536;2023-05-07T02:50:01;12.50;99.90
58339;DHT22;68636;52.704;6.536;2023-05-07T02:52:26;12.40;99.90
58339;DHT22;68636;52.704;6.536;2023-05-07T02:54:52;12.40;99.90
58339;DHT22;68636;52.704;6.536;2023-05-07T02:57:18;12.40;99.90
58339;DHT22;68636;52.704;6.536;2023-05-07T02:59:44;12.30;99.90
58339;DHT22;68636;52.704;6.536;2023-05-07T03:02:10;12.40;99.90
58339;DHT22;68636;52.704;6.536;2023-05-07T03:04:35;12.40;99.90
58339;DHT22;68636;52.704;6.536;2023-05-07T03:07:01;12.30;99.90
58339;DHT22;68636;52.704;6.536;2023-05-07T03:09:27;12.40;99.90
58339;DHT22;68636;52.704;6.536;2023-05-07T03:11:53;12.30;99.90
58339;DHT22;68636;52.704;6.536;2023-05-07T03:14:18;12.10;99.90
58339;DHT22;68636;52.704;6.536;2023-05-07T03:16:47;12.30;99.90
58339;DHT22;68636;52.704;6.536;2023-05-07T03:19:12;12.30;99.90
58339;DHT22;68636;52.704;6.536;2023-05-07T03:21:38;12.20;99.90
58339;DHT22;68636;52.704;6.536;2023-05-07T03:24:04;12.20;99.90
58339;DHT22;68636;52.704;6.536;2023-05-07T03:26:30;12.20;99.90
58339;DHT22;68636;52.704;6.536;2023-05-07T03:28:55;12.20;99.90
58339;DHT22;68636;52.704;6.536;2023-05-07T03:31:21;12.10;99.90
58339;DHT22;68636;52.704;6.536;2023-05-07T03:36:17;12.20;99.90
58339;DHT22;68636;52.704;6.536;2023-05-07T03:38:43;11.90;99.90
58339;DHT22;68636;52.704;6.536;2023-05-07T03:41:09;12.00;99.90
58339;DHT22;68636;52.704;6.536;2023-05-07T03:43:34;12.00;99.90
58339;DHT22;68636;52.704;6.536;2023-05-07T03:46:00;11.90;99.90
58339;DHT22;68636;52.704;6.536;2023-05-07T03:48:26;11.90;99.90
58339;DHT22;68636;52.704;6.536;2023-05-07T03:50:52;11.90;99.90
58339;DHT22;68636;52.704;6.536;2023-05-07T03:53:17;11.80;99.90
58339;DHT22;68636;52.704;6.536;2023-05-07T03:55:43;12.00;99.90
58339;DHT22;68636;52.704;6.536;2023-05-07T03:58:09;12.00;99.90
58339;DHT22;68636;52.704;6.536;2023-05-07T04:00:34;12.00;99.90
58339;DHT22;68636;52.704;6.536;2023-05-07T04:03:04;12.00;99.90
58339;DHT22;68636;52.704;6.536;2023-05-07T04:05:30;12.00;99.90
58339;DHT22;68636;52.704;6.536;2023-05-07T04:07:58;11.90;99.90
58339;DHT22;68636;52.704;6.536;2023-05-07T04:10:24;12.00;99.90
58339;DHT22;68636;52.704;6.536;2023-05-07T04:12:49;12.00;99.90
58339;DHT22;68636;52.704;6.536;2023-05-07T04:15:15;11.90;99.90
58339;DHT22;68636;52.704;6.536;2023-05-07T04:17:41;11.90;99.90
58339;DHT22;68636;52.704;6.536;2023-05-07T04:20:09;11.90;99.90
58339;DHT22;68636;52.704;6.536;2023-05-07T04:22:36;11.90;99.90
58339;DHT22;68636;52.704;6.536;2023-05-07T04:25:03;11.90;99.90
58339;DHT22;68636;52.704;6.536;2023-05-07T04:27:28;11.90;99.90
58339;DHT22;68636;52.704;6.536;2023-05-07T04:29:55;11.90;99.90
58339;DHT22;68636;52.704;6.536;2023-05-07T04:32:23;11.90;99.90
58339;DHT22;68636;52.704;6.536;2023-05-07T04:34:50;12.00;99.90
58339;DHT22;68636;52.704;6.536;2023-05-07T04:37:16;12.00;99.90
58339;DHT22;68636;52.704;6.536;2023-05-07T04:39:42;12.10;99.90
58339;DHT22;68636;52.704;6.536;2023-05-07T04:42:08;12.00;99.90
58339;DHT22;68636;52.704;6.536;2023-05-07T04:44:34;12.00;99.90
58339;DHT22;68636;52.704;6.536;2023-05-07T04:47:02;12.00;99.90
58339;DHT22;68636;52.704;6.536;2023-05-07T04:49:28;12.00;99.90
58339;DHT22;68636;52.704;6.536;2023-05-07T04:51:53;12.00;99.90
58339;DHT22;68636;52.704;6.536;2023-05-07T04:54:19;12.00;99.90
58339;DHT22;68636;52.704;6.536;2023-05-07T04:56:46;12.10;99.90
58339;DHT22;68636;52.704;6.536;2023-05-07T04:59:12;12.00;99.90
58339;DHT22;68636;52.704;6.536;2023-05-07T05:01:38;12.10;99.90
58339;DHT22;68636;52.704;6.536;2023-05-07T05:04:04;12.20;99.90
58339;DHT22;68636;52.704;6.536;2023-05-07T05:06:29;12.10;99.90
58339;DHT22;68636;52.704;6.536;2023-05-07T05:08:56;12.10;99.90
58339;DHT22;68636;52.704;6.536;2023-05-07T05:11:21;12.20;99.90
58339;DHT22;68636;52.704;6.536;2023-05-07T05:13:47;12.10;99.90
58339;DHT22;68636;52.704;6.536;2023-05-07T05:16:15;12.20;99.90
58339;DHT22;68636;52.704;6.536;2023-05-07T05:18:41;12.20;99.90
58339;DHT22;68636;52.704;6.536;2023-05-07T05:21:06;12.20;99.90
58339;DHT22;68636;52.704;6.536;2023-05-07T05:23:32;12.30;99.90
58339;DHT22;68636;52.704;6.536;2023-05-07T05:25:58;12.30;99.90
58339;DHT22;68636;52.704;6.536;2023-05-07T05:28:24;12.20;99.90
58339;DHT22;68636;52.704;6.536;2023-05-07T05:30:50;12.30;99.90
58339;DHT22;68636;52.704;6.536;2023-05-07T05:33:16;12.30;99.90
58339;DHT22;68636;52.704;6.536;2023-05-07T05:35:42;12.40;99.90
58339;DHT22;68636;52.704;6.536;2023-05-07T05:38:08;12.20;99.90
58339;DHT22;68636;52.704;6.536;2023-05-07T05:40:34;12.30;99.90
58339;DHT22;68636;52.704;6.536;2023-05-07T05:43:00;12.30;99.90
58339;DHT22;68636;52.704;6.536;2023-05-07T05:45:25;12.30;99.90
58339;DHT22;68636;52.704;6.536;2023-05-07T05:47:51;12.40;99.90
58339;DHT22;68636;52.704;6.536;2023-05-07T05:50:17;12.40;99.90
58339;DHT22;68636;52.704;6.536;2023-05-07T05:52:43;12.40;99.90
58339;DHT22;68636;52.704;6.536;2023-05-07T05:55:09;12.50;99.90
58339;DHT22;68636;52.704;6.536;2023-05-07T05:57:34;12.60;99.90
58339;DHT22;68636;52.704;6.536;2023-05-07T06:00:01;12.60;99.90
58339;DHT22;68636;52.704;6.536;2023-05-07T06:02:27;12.60;99.90
58339;DHT22;68636;52.704;6.536;2023-05-07T06:04:53;12.70;99.90
58339;DHT22;68636;52.704;6.536;2023-05-07T06:07:19;12.70;99.90
58339;DHT22;68636;52.704;6.536;2023-05-07T06:09:45;12.80;99.90
58339;DHT22;68636;52.704;6.536;2023-05-07T06:12:11;12.70;99.90
58339;DHT22;68636;52.704;6.536;2023-05-07T06:14:37;12.60;99.90
58339;DHT22;68636;52.704;6.536;2023-05-07T06:17:03;12.70;99.90
58339;DHT22;68636;52.704;6.536;2023-05-07T06:19:28;12.80;99.90
58339;DHT22;68636;52.704;6.536;2023-05-07T06:21:54;12.80;99.90
58339;DHT22;68636;52.704;6.536;2023-05-07T06:24:22;12.80;99.90
58339;DHT22;68636;52.704;6.536;2023-05-07T06:26:48;12.80;99.90
58339;DHT22;68636;52.704;6.536;2023-05-07T06:29:14;12.90;99.90
58339;DHT22;68636;52.704;6.536;2023-05-07T06:31:39;12.80;99.90
58339;DHT22;68636;52.704;6.536;2023-05-07T06:34:05;12.90;99.90
58339;DHT22;68636;52.704;6.536;2023-05-07T06:36:31;12.90;99.90
58339;DHT22;68636;52.704;6.536;2023-05-07T06:38:57;12.90;99.90
58339;DHT22;68636;52.704;6.536;2023-05-07T06:41:22;13.00;99.90
58339;DHT22;68636;52.704;6.536;2023-05-07T06:43:48;13.00;99.90
58339;DHT22;68636;52.704;6.536;2023-05-07T06:46:14;13.00;99.90
58339;DHT22;68636;52.704;6.536;2023-05-07T06:48:41;13.10;99.90
58339;DHT22;68636;52.704;6.536;2023-05-07T06:51:06;13.10;99.90
58339;DHT22;68636;52.704;6.536;2023-05-07T06:53:32;13.20;99.90
58339;DHT22;68636;52.704;6.536;2023-05-07T06:55:58;13.20;99.90
58339;DHT22;68636;52.704;6.536;2023-05-07T06:58:24;13.20;99.90
58339;DHT22;68636;52.704;6.536;2023-05-07T07:00:49;13.30;99.90
58339;DHT22;68636;52.704;6.536;2023-05-07T07:03:15;13.50;99.90
58339;DHT22;68636;52.704;6.536;2023-05-07T07:05:41;13.70;99.90
58339;DHT22;68636;52.704;6.536;2023-05-07T07:08:07;13.70;99.90
58339;DHT22;68636;52.704;6.536;2023-05-07T07:10:33;13.70;99.90
58339;DHT22;68636;52.704;6.536;2023-05-07T07:12:59;13.90;99.90
58339;DHT22;68636;52.704;6.536;2023-05-07T07:15:25;14.00;99.90
58339;DHT22;68636;52.704;6.536;2023-05-07T07:17:51;14.10;99.90
58339;DHT22;68636;52.704;6.536;2023-05-07T07:20:17;14.30;99.90
58339;DHT22;68636;52.704;6.536;2023-05-07T07:22:42;14.40;99.90
58339;DHT22;68636;52.704;6.536;2023-05-07T07:25:08;14.50;99.90
58339;DHT22;68636;52.704;6.536;2023-05-07T07:27:34;14.60;99.90
58339;DHT22;68636;52.704;6.536;2023-05-07T07:30:00;14.70;99.90
58339;DHT22;68636;52.704;6.536;2023-05-07T07:32:26;14.70;99.90
58339;DHT22;68636;52.704;6.536;2023-05-07T07:34:52;14.80;99.90
58339;DHT22;68636;52.704;6.536;2023-05-07T07:37:17;14.90;99.90
58339;DHT22;68636;52.704;6.536;2023-05-07T07:39:43;15.10;99.90
58339;DHT22;68636;52.704;6.536;2023-05-07T07:42:09;15.30;99.90
58339;DHT22;68636;52.704;6.536;2023-05-07T07:44:34;15.50;99.90
58339;DHT22;68636;52.704;6.536;2023-05-07T07:47:00;15.60;99.90
58339;DHT22;68636;52.704;6.536;2023-05-07T07:49:26;15.60;99.90
58339;DHT22;68636;52.704;6.536;2023-05-07T07:51:52;15.70;99.90
58339;DHT22;68636;52.704;6.536;2023-05-07T07:54:18;15.80;99.90
58339;DHT22;68636;52.704;6.536;2023-05-07T07:56:44;15.80;99.90
58339;DHT22;68636;52.704;6.536;2023-05-07T07:59:09;15.90;99.90
58339;DHT22;68636;52.704;6.536;2023-05-07T08:01:35;16.10;99.90
58339;DHT22;68636;52.704;6.536;2023-05-07T08:04:01;16.10;99.90
58339;DHT22;68636;52.704;6.536;2023-05-07T08:06:29;16.20;99.90
58339;DHT22;68636;52.704;6.536;2023-05-07T08:08:55;16.30;99.90
58339;DHT22;68636;52.704;6.536;2023-05-07T08:11:20;16.30;99.90
58339;DHT22;68636;52.704;6.536;2023-05-07T08:13:47;16.40;99.90
58339;DHT22;68636;52.704;6.536;2023-05-07T08:16:13;16.30;99.90
58339;DHT22;68636;52.704;6.536;2023-05-07T08:18:39;16.30;99.90
58339;DHT22;68636;52.704;6.536;2023-05-07T08:21:04;16.40;99.90
58339;DHT22;68636;52.704;6.536;2023-05-07T08:23:30;16.60;99.90
58339;DHT22;68636;52.704;6.536;2023-05-07T08:25:57;16.70;99.90
58339;DHT22;68636;52.704;6.536;2023-05-07T08:28:22;16.90;99.90
58339;DHT22;68636;52.704;6.536;2023-05-07T08:30:50;17.10;99.90
58339;DHT22;68636;52.704;6.536;2023-05-07T08:33:16;17.30;99.90
58339;DHT22;68636;52.704;6.536;2023-05-07T08:35:41;17.40;99.90
58339;DHT22;68636;52.704;6.536;2023-05-07T08:38:07;17.40;99.90
58339;DHT22;68636;52.704;6.536;2023-05-07T08:40:37;17.40;99.90
58339;DHT22;68636;52.704;6.536;2023-05-07T08:43:05;17.40;99.90
58339;DHT22;68636;52.704;6.536;2023-05-07T08:45:33;17.40;99.90
58339;DHT22;68636;52.704;6.536;2023-05-07T08:48:02;17.40;99.90
58339;DHT22;68636;52.704;6.536;2023-05-07T08:50:29;17.40;99.90
58339;DHT22;68636;52.704;6.536;2023-05-07T08:52:55;17.30;99.90
58339;DHT22;68636;52.704;6.536;2023-05-07T08:55:24;17.40;99.90
58339;DHT22;68636;52.704;6.536;2023-05-07T08:57:50;17.50;99.90
58339;DHT22;68636;52.704;6.536;2023-05-07T09:00:18;17.50;99.90
58339;DHT22;68636;52.704;6.536;2023-05-07T09:02:44;17.50;99.90
58339;DHT22;68636;52.704;6.536;2023-05-07T09:05:10;17.50;99.90
58339;DHT22;68636;52.704;6.536;2023-05-07T09:07:35;17.50;99.90
58339;DHT22;68636;52.704;6.536;2023-05-07T09:10:03;17.50;99.90
58339;DHT22;68636;52.704;6.536;2023-05-07T09:12:30;17.60;99.90
58339;DHT22;68636;52.704;6.536;2023-05-07T09:14:56;17.70;99.90
58339;DHT22;68636;52.704;6.536;2023-05-07T09:17:22;17.80;99.90
58339;DHT22;68636;52.704;6.536;2023-05-07T09:19:48;17.90;99.90
58339;DHT22;68636;52.704;6.536;2023-05-07T09:22:14;17.90;99.90
58339;DHT22;68636;52.704;6.536;2023-05-07T09:24:40;17.90;99.90
58339;DHT22;68636;52.704;6.536;2023-05-07T09:27:06;18.00;99.90
58339;DHT22;68636;52.704;6.536;2023-05-07T09:29:34;17.90;99.90
58339;DHT22;68636;52.704;6.536;2023-05-07T09:32:02;17.80;99.90
58339;DHT22;68636;52.704;6.536;2023-05-07T09:34:29;17.80;99.90
58339;DHT22;68636;52.704;6.536;2023-05-07T09:36:56;17.70;99.90
58339;DHT22;68636;52.704;6.536;2023-05-07T09:39:26;17.70;99.90
58339;DHT22;68636;52.704;6.536;2023-05-07T09:41:51;17.60;99.90
58339;DHT22;68636;52.704;6.536;2023-05-07T09:44:20;17.50;99.90
58339;DHT22;68636;52.704;6.536;2023-05-07T09:46:47;17.60;99.90
58339;DHT22;68636;52.704;6.536;2023-05-07T09:49:22;17.50;99.90
58339;DHT22;68636;52.704;6.536;2023-05-07T09:51:50;17.50;99.90
58339;DHT22;68636;52.704;6.536;2023-05-07T09:54:17;17.70;99.90
58339;DHT22;68636;52.704;6.536;2023-05-07T09:56:47;17.90;99.90
58339;DHT22;68636;52.704;6.536;2023-05-07T09:59:14;18.00;99.90
58339;DHT22;68636;52.704;6.536;2023-05-07T10:01:42;18.20;99.90
58339;DHT22;68636;52.704;6.536;2023-05-07T10:04:09;18.20;99.90
58339;DHT22;68636;52.704;6.536;2023-05-07T10:06:35;18.30;99.90
58339;DHT22;68636;52.704;6.536;2023-05-07T10:09:03;18.40;99.90
58339;DHT22;68636;52.704;6.536;2023-05-07T10:11:29;18.40;99.90
58339;DHT22;68636;52.704;6.536;2023-05-07T10:13:56;18.40;99.90
58339;DHT22;68636;52.704;6.536;2023-05-07T10:16:22;18.30;99.90
58339;DHT22;68636;52.704;6.536;2023-05-07T10:18:49;18.50;99.90
58339;DHT22;68636;52.704;6.536;2023-05-07T10:21:21;18.50;99.90
58339;DHT22;68636;52.704;6.536;2023-05-07T10:23:57;18.70;99.90
58339;DHT22;68636;52.704;6.536;2023-05-07T10:26:24;18.70;99.90
58339;DHT22;68636;52.704;6.536;2023-05-07T10:28:54;18.70;99.90
58339;DHT22;68636;52.704;6.536;2023-05-07T10:34:11;18.80;99.90
58339;DHT22;68636;52.704;6.536;2023-05-07T10:36:37;18.90;99.90
58339;DHT22;68636;52.704;6.536;2023-05-07T10:39:05;19.10;99.90
58339;DHT22;68636;52.704;6.536;2023-05-07T10:41:31;19.10;99.90
58339;DHT22;68636;52.704;6.536;2023-05-07T10:43:57;19.00;99.90
58339;DHT22;68636;52.704;6.536;2023-05-07T10:46:26;19.20;99.90
58339;DHT22;68636;52.704;6.536;2023-05-07T10:51:34;19.40;99.90
58339;DHT22;68636;52.704;6.536;2023-05-07T10:56:39;19.50;99.90
58339;DHT22;68636;52.704;6.536;2023-05-07T11:04:17;19.50;99.90
58339;DHT22;68636;52.704;6.536;2023-05-07T11:15:05;19.60;99.90
58339;DHT22;68636;52.704;6.536;2023-05-07T11:17:32;19.40;99.90
58339;DHT22;68636;52.704;6.536;2023-05-07T11:20:01;19.40;99.90
58339;DHT22;68636;52.704;6.536;2023-05-07T11:25:02;19.40;99.90
58339;DHT22;68636;52.704;6.536;2023-05-07T11:27:29;19.50;99.90
58339;DHT22;68636;52.704;6.536;2023-05-07T11:29:55;19.40;99.90
58339;DHT22;68636;52.704;6.536;2023-05-07T11:32:24;19.40;99.90
58339;DHT22;68636;52.704;6.536;2023-05-07T11:34:54;19.50;99.90
58339;DHT22;68636;52.704;6.536;2023-05-07T11:37:21;19.40;99.90
58339;DHT22;68636;52.704;6.536;2023-05-07T11:39:47;19.50;99.90
58339;DHT22;68636;52.704;6.536;2023-05-07T11:42:36;19.50;99.90
58339;DHT22;68636;52.704;6.536;2023-05-07T11:45:06;19.50;99.90
58339;DHT22;68636;52.704;6.536;2023-05-07T11:47:33;19.50;99.90
58339;DHT22;68636;52.704;6.536;2023-05-07T11:50:05;19.50;99.90
58339;DHT22;68636;52.704;6.536;2023-05-07T11:52:31;19.60;99.90
58339;DHT22;68636;52.704;6.536;2023-05-07T11:54:59;19.60;99.90
58339;DHT22;68636;52.704;6.536;2023-05-07T11:57:26;19.80;99.90
58339;DHT22;68636;52.704;6.536;2023-05-07T11:59:56;19.80;99.90
58339;DHT22;68636;52.704;6.536;2023-05-07T12:02:22;19.90;99.90
58339;DHT22;68636;52.704;6.536;2023-05-07T12:04:47;20.10;99.90
58339;DHT22;68636;52.704;6.536;2023-05-07T12:07:14;20.30;99.90
58339;DHT22;68636;52.704;6.536;2023-05-07T12:09:43;20.20;99.90
58339;DHT22;68636;52.704;6.536;2023-05-07T12:12:09;20.30;99.90
58339;DHT22;68636;52.704;6.536;2023-05-07T12:14:40;20.30;99.90
58339;DHT22;68636;52.704;6.536;2023-05-07T12:17:07;20.30;99.90
58339;DHT22;68636;52.704;6.536;2023-05-07T12:19:34;20.30;99.90
58339;DHT22;68636;52.704;6.536;2023-05-07T12:22:01;20.30;99.90
58339;DHT22;68636;52.704;6.536;2023-05-07T12:24:26;20.30;99.90
58339;DHT22;68636;52.704;6.536;2023-05-07T12:26:52;20.20;99.90
58339;DHT22;68636;52.704;6.536;2023-05-07T12:29:21;20.20;99.90
58339;DHT22;68636;52.704;6.536;2023-05-07T12:31:49;20.20;99.90
58339;DHT22;68636;52.704;6.536;2023-05-07T12:34:15;20.30;99.90
58339;DHT22;68636;52.704;6.536;2023-05-07T12:36:41;20.30;99.90
58339;DHT22;68636;52.704;6.536;2023-05-07T12:39:08;20.30;99.90
58339;DHT22;68636;52.704;6.536;2023-05-07T12:41:53;20.30;99.90
58339;DHT22;68636;52.704;6.536;2023-05-07T12:44:22;20.30;99.90
58339;DHT22;68636;52.704;6.536;2023-05-07T12:46:49;20.30;99.90
58339;DHT22;68636;52.704;6.536;2023-05-07T12:49:15;20.30;99.90
58339;DHT22;68636;52.704;6.536;2023-05-07T12:51:40;20.50;99.90
58339;DHT22;68636;52.704;6.536;2023-05-07T12:54:06;20.80;99.90
58339;DHT22;68636;52.704;6.536;2023-05-07T12:56:35;20.50;99.90
58339;DHT22;68636;52.704;6.536;2023-05-07T12:59:01;20.50;99.90
58339;DHT22;68636;52.704;6.536;2023-05-07T13:01:30;20.30;99.90
58339;DHT22;68636;52.704;6.536;2023-05-07T13:04:00;20.30;99.90
58339;DHT22;68636;52.704;6.536;2023-05-07T13:06:26;20.10;99.90
58339;DHT22;68636;52.704;6.536;2023-05-07T13:08:52;20.00;99.90
58339;DHT22;68636;52.704;6.536;2023-05-07T13:11:18;20.00;99.90
58339;DHT22;68636;52.704;6.536;2023-05-07T13:13:44;20.10;99.90
58339;DHT22;68636;52.704;6.536;2023-05-07T13:16:10;20.20;99.90
58339;DHT22;68636;52.704;6.536;2023-05-07T13:18:39;20.20;99.90
58339;DHT22;68636;52.704;6.536;2023-05-07T13:21:05;20.20;99.90
58339;DHT22;68636;52.704;6.536;2023-05-07T13:23:31;20.20;99.90
58339;DHT22;68636;52.704;6.536;2023-05-07T13:25:57;20.20;99.90
58339;DHT22;68636;52.704;6.536;2023-05-07T13:28:24;20.20;99.90
58339;DHT22;68636;52.704;6.536;2023-05-07T13:30:50;20.10;99.90
58339;DHT22;68636;52.704;6.536;2023-05-07T13:33:17;20.10;99.90
58339;DHT22;68636;52.704;6.536;2023-05-07T13:35:43;20.10;99.90
58339;DHT22;68636;52.704;6.536;2023-05-07T13:38:09;19.90;99.90
58339;DHT22;68636;52.704;6.536;2023-05-07T13:40:35;19.90;99.90
58339;DHT22;68636;52.704;6.536;2023-05-07T13:43:01;19.70;99.90
58339;DHT22;68636;52.704;6.536;2023-05-07T13:45:30;19.80;99.90
58339;DHT22;68636;52.704;6.536;2023-05-07T13:47:56;19.80;99.90
58339;DHT22;68636;52.704;6.536;2023-05-07T13:50:22;19.80;99.90
58339;DHT22;68636;52.704;6.536;2023-05-07T13:52:48;19.90;99.90
58339;DHT22;68636;52.704;6.536;2023-05-07T13:55:17;19.80;99.90
58339;DHT22;68636;52.704;6.536;2023-05-07T13:57:43;19.90;99.90
58339;DHT22;68636;52.704;6.536;2023-05-07T14:00:10;20.00;99.90
58339;DHT22;68636;52.704;6.536;2023-05-07T14:02:36;20.00;99.90
58339;DHT22;68636;52.704;6.536;2023-05-07T14:05:02;20.10;99.90
58339;DHT22;68636;52.704;6.536;2023-05-07T14:07:27;20.10;99.90
58339;DHT22;68636;52.704;6.536;2023-05-07T14:09:54;20.20;99.90
58339;DHT22;68636;52.704;6.536;2023-05-07T14:12:20;20.30;99.90
58339;DHT22;68636;52.704;6.536;2023-05-07T14:14:46;20.20;99.90
58339;DHT22;68636;52.704;6.536;2023-05-07T14:17:12;20.30;99.90
58339;DHT22;68636;52.704;6.536;2023-05-07T14:19:38;20.30;99.90
58339;DHT22;68636;52.704;6.536;2023-05-07T14:22:04;20.20;99.90
58339;DHT22;68636;52.704;6.536;2023-05-07T14:24:30;20.20;99.90
58339;DHT22;68636;52.704;6.536;2023-05-07T14:26:56;20.30;99.90
58339;DHT22;68636;52.704;6.536;2023-05-07T14:29:21;20.40;99.90
58339;DHT22;68636;52.704;6.536;2023-05-07T14:31:48;20.40;99.90
58339;DHT22;68636;52.704;6.536;2023-05-07T14:34:14;20.40;99.90
58339;DHT22;68636;52.704;6.536;2023-05-07T14:36:39;20.30;99.90
58339;DHT22;68636;52.704;6.536;2023-05-07T14:39:05;20.20;99.90
58339;DHT22;68636;52.704;6.536;2023-05-07T14:41:31;20.00;99.90
58339;DHT22;68636;52.704;6.536;2023-05-07T14:43:58;19.90;99.90
58339;DHT22;68636;52.704;6.536;2023-05-07T14:46:24;19.80;99.90
58339;DHT22;68636;52.704;6.536;2023-05-07T14:48:50;19.60;99.90
58339;DHT22;68636;52.704;6.536;2023-05-07T14:51:16;19.60;99.90
58339;DHT22;68636;52.704;6.536;2023-05-07T14:53:42;19.60;99.90
58339;DHT22;68636;52.704;6.536;2023-05-07T14:56:08;19.60;99.90
58339;DHT22;68636;52.704;6.536;2023-05-07T14:58:34;19.50;99.90
58339;DHT22;68636;52.704;6.536;2023-05-07T15:01:00;19.50;99.90
58339;DHT22;68636;52.704;6.536;2023-05-07T15:03:27;19.50;99.90
58339;DHT22;68636;52.704;6.536;2023-05-07T15:05:52;19.50;99.90
58339;DHT22;68636;52.704;6.536;2023-05-07T15:08:18;19.50;99.90
58339;DHT22;68636;52.704;6.536;2023-05-07T15:10:45;19.50;99.90
58339;DHT22;68636;52.704;6.536;2023-05-07T15:13:11;19.40;99.90
58339;DHT22;68636;52.704;6.536;2023-05-07T15:15:40;19.40;99.90
58339;DHT22;68636;52.704;6.536;2023-05-07T15:18:06;19.30;99.90
58339;DHT22;68636;52.704;6.536;2023-05-07T15:20:32;19.20;99.90
58339;DHT22;68636;52.704;6.536;2023-05-07T15:22:58;19.30;99.90
58339;DHT22;68636;52.704;6.536;2023-05-07T15:25:24;19.30;99.90
58339;DHT22;68636;52.704;6.536;2023-05-07T15:27:49;19.40;99.90
58339;DHT22;68636;52.704;6.536;2023-05-07T15:30:15;19.40;99.90
58339;DHT22;68636;52.704;6.536;2023-05-07T15:32:42;19.50;99.90
58339;DHT22;68636;52.704;6.536;2023-05-07T15:35:08;19.60;99.90
58339;DHT22;68636;52.704;6.536;2023-05-07T15:37:34;19.50;99.90
58339;DHT22;68636;52.704;6.536;2023-05-07T15:40:00;19.50;99.90
58339;DHT22;68636;52.704;6.536;2023-05-07T15:42:28;19.50;99.90
58339;DHT22;68636;52.704;6.536;2023-05-07T15:44:54;19.50;99.90
58339;DHT22;68636;52.704;6.536;2023-05-07T15:47:20;19.50;99.90
58339;DHT22;68636;52.704;6.536;2023-05-07T15:49:46;19.50;99.90
58339;DHT22;68636;52.704;6.536;2023-05-07T15:52:12;19.60;99.90